This is the latest recevied weather packets stored in our database for station/object K0NV. If no packets are shown the sender has not sent any weather packets the latest 1 day(s).
| Time | Temp. | Humidity | Pressure | Rain* | Wind** | Luminosity | Snow |
|---|---|---|---|---|---|---|---|
| 1777999720 | 12.78° C | 86% | 1009.5 hPa | 0 mm | 0.45 m/s, 14° | 176 W/m² | - |
| 1777999417 | 12.78° C | 86% | 1009 hPa | 0 mm | 0 m/s | 316 W/m² | - |
| 1777999116 | 13.33° C | 86% | 1009.1 hPa | 0 mm | 0.45 m/s, 255° | 249 W/m² | - |
| 1777998814 | 12.78° C | 86% | 1009.1 hPa | 0 mm | 0 m/s | 297 W/m² | - |
| 1777998512 | 12.78° C | 86% | 1009 hPa | 0 mm | 2.68 m/s, 17° | 271 W/m² | - |
| 1777998208 | 12.78° C | 86% | 1008.8 hPa | 0 mm | 0 m/s | 332 W/m² | - |
| 1777997905 | 12.78° C | 86% | 1009 hPa | 0 mm | 2.68 m/s, 39° | 202 W/m² | - |
| 1777997602 | 13.33° C | 86% | 1009.2 hPa | 0 mm | 2.68 m/s, 15° | 243 W/m² | - |
| 1777997299 | 13.33° C | 86% | 1009.1 hPa | 0 mm | 0 m/s | 161 W/m² | - |
| 1777996998 | 13.33° C | 86% | 1009.2 hPa | 0 mm | 0 m/s | 101 W/m² | - |
| 1777996694 | 13.33° C | 86% | 1009.1 hPa | 0 mm | 0 m/s | 120 W/m² | - |
| 1777996389 | 13.33° C | 86% | 1009.4 hPa | 0 mm | 0 m/s | 104 W/m² | - |
| 1777996086 | 13.89° C | 86% | 1009.6 hPa | 0 mm | 0 m/s | 97 W/m² | - |
| 1777995783 | 13.89° C | 87% | 1009.6 hPa | 0 mm | 0 m/s | 71 W/m² | - |
| 1777995479 | 13.89° C | 87% | 1009.5 hPa | 0 mm | 0 m/s | 79 W/m² | - |
| 1777995176 | 13.89° C | 87% | 1009.6 hPa | 0 mm | 0 m/s | 61 W/m² | - |
| 1777994873 | 13.89° C | 87% | 1009.1 hPa | 0 mm | 0.89 m/s, 27° | 92 W/m² | - |
| 1777994569 | 13.89° C | 87% | 1009 hPa | 0 mm | 0 m/s | 117 W/m² | - |
| 1777994264 | 13.89° C | 88% | 1008.5 hPa | 0 mm | 0 m/s | 152 W/m² | - |
| 1777993962 | 13.89° C | 89% | 1008.4 hPa | 0 mm | 0 m/s | 169 W/m² | - |
| 1777993658 | 13.33° C | 89% | 1007.9 hPa | 0 mm | 0.89 m/s, 56° | 200 W/m² | - |
| 1777993356 | 13.89° C | 89% | 1008.2 hPa | 0 mm | 0 m/s | 173 W/m² | - |
| 1777993050 | 13.89° C | 89% | 1008 hPa | 0 mm | 0.45 m/s, 39° | 202 W/m² | - |
| 1777992748 | 13.33° C | 89% | 1007.9 hPa | 0 mm | 0 m/s | 213 W/m² | - |
| 1777992446 | 13.33° C | 90% | 1008.3 hPa | 0 mm | 0 m/s | 227 W/m² | - |
* Rain latest hour (hover to see other rain measurements)
** Current wind speed in m/s (hover to see current wind gust speed)